sensor_id;sensor_type;location;lat;lon;timestamp;temperature;humidity
12481;DHT22;6305;48.398;11.762;2022-09-09T00:01:33;11.50;99.90
12481;DHT22;6305;48.398;11.762;2022-09-09T00:04:12;11.50;99.90
12481;DHT22;6305;48.398;11.762;2022-09-09T00:06:45;11.40;99.90
12481;DHT22;6305;48.398;11.762;2022-09-09T00:09:15;11.40;99.90
12481;DHT22;6305;48.398;11.762;2022-09-09T00:11:50;11.40;99.90
12481;DHT22;6305;48.398;11.762;2022-09-09T00:14:23;11.30;99.90
12481;DHT22;6305;48.398;11.762;2022-09-09T00:16:56;11.30;99.90
12481;DHT22;6305;48.398;11.762;2022-09-09T00:19:32;11.20;99.90
12481;DHT22;6305;48.398;11.762;2022-09-09T00:22:14;11.10;99.90
12481;DHT22;6305;48.398;11.762;2022-09-09T00:24:44;11.10;99.90
12481;DHT22;6305;48.398;11.762;2022-09-09T00:27:19;11.20;99.90
12481;DHT22;6305;48.398;11.762;2022-09-09T00:29:54;11.20;99.90
12481;DHT22;6305;48.398;11.762;2022-09-09T00:32:28;11.30;99.90
12481;DHT22;6305;48.398;11.762;2022-09-09T00:35:00;11.40;99.90
12481;DHT22;6305;48.398;11.762;2022-09-09T00:37:28;11.40;99.90
12481;DHT22;6305;48.398;11.762;2022-09-09T00:39:59;11.40;99.90
12481;DHT22;6305;48.398;11.762;2022-09-09T00:42:36;11.40;99.90
12481;DHT22;6305;48.398;11.762;2022-09-09T00:45:32;11.40;99.90
12481;DHT22;6305;48.398;11.762;2022-09-09T00:48:06;11.40;99.90
12481;DHT22;6305;48.398;11.762;2022-09-09T00:50:45;11.30;99.90
12481;DHT22;6305;48.398;11.762;2022-09-09T00:53:25;11.30;99.90
12481;DHT22;6305;48.398;11.762;2022-09-09T00:56:02;11.30;99.90
12481;DHT22;6305;48.398;11.762;2022-09-09T00:58:32;11.30;99.90
12481;DHT22;6305;48.398;11.762;2022-09-09T01:01:04;11.30;99.90
12481;DHT22;6305;48.398;11.762;2022-09-09T01:03:35;11.30;99.90
12481;DHT22;6305;48.398;11.762;2022-09-09T01:06:14;11.20;99.90
12481;DHT22;6305;48.398;11.762;2022-09-09T01:09:05;11.20;99.90
12481;DHT22;6305;48.398;11.762;2022-09-09T01:11:50;11.10;99.90
12481;DHT22;6305;48.398;11.762;2022-09-09T01:14:30;11.10;99.90
12481;DHT22;6305;48.398;11.762;2022-09-09T01:17:04;11.00;99.90
12481;DHT22;6305;48.398;11.762;2022-09-09T01:19:39;11.00;99.90
12481;DHT22;6305;48.398;11.762;2022-09-09T01:22:15;11.00;99.90
12481;DHT22;6305;48.398;11.762;2022-09-09T01:25:05;11.00;99.90
12481;DHT22;6305;48.398;11.762;2022-09-09T01:27:38;10.90;99.90
12481;DHT22;6305;48.398;11.762;2022-09-09T01:30:09;10.90;99.90
12481;DHT22;6305;48.398;11.762;2022-09-09T01:32:42;10.90;99.90
12481;DHT22;6305;48.398;11.762;2022-09-09T01:35:13;10.90;99.90
12481;DHT22;6305;48.398;11.762;2022-09-09T01:37:42;10.90;99.90
12481;DHT22;6305;48.398;11.762;2022-09-09T01:40:09;10.90;99.90
12481;DHT22;6305;48.398;11.762;2022-09-09T01:42:39;10.90;99.90
12481;DHT22;6305;48.398;11.762;2022-09-09T01:45:07;10.90;99.90
12481;DHT22;6305;48.398;11.762;2022-09-09T01:47:37;10.90;99.90
12481;DHT22;6305;48.398;11.762;2022-09-09T01:50:05;10.90;99.90
12481;DHT22;6305;48.398;11.762;2022-09-09T01:52:35;10.90;99.90
12481;DHT22;6305;48.398;11.762;2022-09-09T01:55:03;11.00;99.90
12481;DHT22;6305;48.398;11.762;2022-09-09T01:57:33;11.10;99.90
12481;DHT22;6305;48.398;11.762;2022-09-09T02:00:05;11.10;99.90
12481;DHT22;6305;48.398;11.762;2022-09-09T02:02:36;11.10;99.90
12481;DHT22;6305;48.398;11.762;2022-09-09T02:05:12;11.10;99.90
12481;DHT22;6305;48.398;11.762;2022-09-09T02:07:42;11.10;99.90
12481;DHT22;6305;48.398;11.762;2022-09-09T02:10:24;11.10;99.90
12481;DHT22;6305;48.398;11.762;2022-09-09T02:12:58;11.10;99.90
12481;DHT22;6305;48.398;11.762;2022-09-09T02:15:34;11.10;99.90
12481;DHT22;6305;48.398;11.762;2022-09-09T02:18:05;11.00;99.90
12481;DHT22;6305;48.398;11.762;2022-09-09T02:20:35;11.00;99.90
12481;DHT22;6305;48.398;11.762;2022-09-09T02:23:04;11.00;99.90
12481;DHT22;6305;48.398;11.762;2022-09-09T02:25:34;11.10;99.90
12481;DHT22;6305;48.398;11.762;2022-09-09T02:28:03;11.00;99.90
12481;DHT22;6305;48.398;11.762;2022-09-09T02:30:34;11.00;99.90
12481;DHT22;6305;48.398;11.762;2022-09-09T02:33:03;11.10;99.90
12481;DHT22;6305;48.398;11.762;2022-09-09T02:35:32;11.10;99.90
12481;DHT22;6305;48.398;11.762;2022-09-09T02:38:05;11.10;99.90
12481;DHT22;6305;48.398;11.762;2022-09-09T02:40:33;11.10;99.90
12481;DHT22;6305;48.398;11.762;2022-09-09T02:43:00;11.10;99.90
12481;DHT22;6305;48.398;11.762;2022-09-09T02:45:34;11.10;99.90
12481;DHT22;6305;48.398;11.762;2022-09-09T02:48:07;11.10;99.90
12481;DHT22;6305;48.398;11.762;2022-09-09T02:50:41;11.00;99.90
12481;DHT22;6305;48.398;11.762;2022-09-09T02:53:16;11.00;99.90
12481;DHT22;6305;48.398;11.762;2022-09-09T02:55:57;11.00;99.90
12481;DHT22;6305;48.398;11.762;2022-09-09T02:58:26;10.90;99.90
12481;DHT22;6305;48.398;11.762;2022-09-09T03:00:55;10.90;99.90
12481;DHT22;6305;48.398;11.762;2022-09-09T03:03:23;10.90;99.90
12481;DHT22;6305;48.398;11.762;2022-09-09T03:05:51;10.90;99.90
12481;DHT22;6305;48.398;11.762;2022-09-09T03:08:18;10.80;99.90
12481;DHT22;6305;48.398;11.762;2022-09-09T03:10:45;10.70;99.90
12481;DHT22;6305;48.398;11.762;2022-09-09T03:13:12;10.70;99.90
12481;DHT22;6305;48.398;11.762;2022-09-09T03:15:41;10.60;99.90
12481;DHT22;6305;48.398;11.762;2022-09-09T03:18:09;10.50;99.90
12481;DHT22;6305;48.398;11.762;2022-09-09T03:20:36;10.50;99.90
12481;DHT22;6305;48.398;11.762;2022-09-09T03:23:02;10.50;99.90
12481;DHT22;6305;48.398;11.762;2022-09-09T03:25:29;10.50;99.90
12481;DHT22;6305;48.398;11.762;2022-09-09T03:27:57;10.60;99.90
12481;DHT22;6305;48.398;11.762;2022-09-09T03:30:26;10.60;99.90
12481;DHT22;6305;48.398;11.762;2022-09-09T03:32:54;10.70;99.90
12481;DHT22;6305;48.398;11.762;2022-09-09T03:35:23;10.80;99.90
12481;DHT22;6305;48.398;11.762;2022-09-09T03:37:50;11.00;99.90
12481;DHT22;6305;48.398;11.762;2022-09-09T03:40:17;11.10;99.90
12481;DHT22;6305;48.398;11.762;2022-09-09T03:42:44;11.20;99.90
12481;DHT22;6305;48.398;11.762;2022-09-09T03:45:11;11.30;99.90
12481;DHT22;6305;48.398;11.762;2022-09-09T03:47:38;11.40;99.90
12481;DHT22;6305;48.398;11.762;2022-09-09T03:50:05;11.40;99.90
12481;DHT22;6305;48.398;11.762;2022-09-09T03:52:36;11.50;99.90
12481;DHT22;6305;48.398;11.762;2022-09-09T03:55:03;11.50;99.90
12481;DHT22;6305;48.398;11.762;2022-09-09T03:57:31;11.60;99.90
12481;DHT22;6305;48.398;11.762;2022-09-09T04:00:00;11.60;99.90
12481;DHT22;6305;48.398;11.762;2022-09-09T04:02:27;11.70;99.90
12481;DHT22;6305;48.398;11.762;2022-09-09T04:04:54;11.80;99.90
12481;DHT22;6305;48.398;11.762;2022-09-09T04:07:21;11.80;99.90
12481;DHT22;6305;48.398;11.762;2022-09-09T04:09:49;11.80;99.90
12481;DHT22;6305;48.398;11.762;2022-09-09T04:12:16;11.90;99.90
12481;DHT22;6305;48.398;11.762;2022-09-09T04:14:43;11.90;99.90
12481;DHT22;6305;48.398;11.762;2022-09-09T04:17:10;11.90;99.90
12481;DHT22;6305;48.398;11.762;2022-09-09T04:19:37;11.80;99.90
12481;DHT22;6305;48.398;11.762;2022-09-09T04:22:03;11.80;99.90
12481;DHT22;6305;48.398;11.762;2022-09-09T04:24:30;11.80;99.90
12481;DHT22;6305;48.398;11.762;2022-09-09T04:26:58;11.80;99.90
12481;DHT22;6305;48.398;11.762;2022-09-09T04:29:25;11.80;99.90
12481;DHT22;6305;48.398;11.762;2022-09-09T04:31:52;11.70;99.90
12481;DHT22;6305;48.398;11.762;2022-09-09T04:34:18;11.70;99.90
12481;DHT22;6305;48.398;11.762;2022-09-09T04:36:45;11.60;99.90
12481;DHT22;6305;48.398;11.762;2022-09-09T04:39:12;11.70;99.90
12481;DHT22;6305;48.398;11.762;2022-09-09T04:41:38;11.70;99.90
12481;DHT22;6305;48.398;11.762;2022-09-09T04:44:06;11.70;99.90
12481;DHT22;6305;48.398;11.762;2022-09-09T04:46:33;11.70;99.90
12481;DHT22;6305;48.398;11.762;2022-09-09T04:49:00;11.70;99.90
12481;DHT22;6305;48.398;11.762;2022-09-09T04:51:27;11.70;99.90
12481;DHT22;6305;48.398;11.762;2022-09-09T04:53:56;11.60;99.90
12481;DHT22;6305;48.398;11.762;2022-09-09T04:56:23;11.60;99.90
12481;DHT22;6305;48.398;11.762;2022-09-09T04:58:52;11.60;99.90
12481;DHT22;6305;48.398;11.762;2022-09-09T05:01:21;11.50;99.90
12481;DHT22;6305;48.398;11.762;2022-09-09T05:03:49;11.50;99.90
12481;DHT22;6305;48.398;11.762;2022-09-09T05:06:18;11.50;99.90
12481;DHT22;6305;48.398;11.762;2022-09-09T05:08:45;11.50;99.90
12481;DHT22;6305;48.398;11.762;2022-09-09T05:11:15;11.40;99.90
12481;DHT22;6305;48.398;11.762;2022-09-09T05:13:42;11.40;99.90
12481;DHT22;6305;48.398;11.762;2022-09-09T05:16:09;11.40;99.90
12481;DHT22;6305;48.398;11.762;2022-09-09T05:18:38;11.40;99.90
12481;DHT22;6305;48.398;11.762;2022-09-09T05:21:05;11.50;99.90
12481;DHT22;6305;48.398;11.762;2022-09-09T05:23:32;11.50;99.90
12481;DHT22;6305;48.398;11.762;2022-09-09T05:25:59;11.50;99.90
12481;DHT22;6305;48.398;11.762;2022-09-09T05:28:27;11.50;99.90
12481;DHT22;6305;48.398;11.762;2022-09-09T05:30:58;11.50;99.90
12481;DHT22;6305;48.398;11.762;2022-09-09T05:33:26;11.50;99.90
12481;DHT22;6305;48.398;11.762;2022-09-09T05:35:58;11.60;99.90
12481;DHT22;6305;48.398;11.762;2022-09-09T05:38:25;11.60;99.90
12481;DHT22;6305;48.398;11.762;2022-09-09T05:40:53;11.70;99.90
12481;DHT22;6305;48.398;11.762;2022-09-09T05:43:19;11.70;99.90
12481;DHT22;6305;48.398;11.762;2022-09-09T05:45:47;11.80;99.90
12481;DHT22;6305;48.398;11.762;2022-09-09T05:48:14;11.70;99.90
12481;DHT22;6305;48.398;11.762;2022-09-09T05:50:41;11.70;99.90
12481;DHT22;6305;48.398;11.762;2022-09-09T05:53:10;11.90;99.90
12481;DHT22;6305;48.398;11.762;2022-09-09T05:55:36;12.00;99.90
12481;DHT22;6305;48.398;11.762;2022-09-09T05:58:03;12.20;99.90
12481;DHT22;6305;48.398;11.762;2022-09-09T06:00:30;12.30;99.90
12481;DHT22;6305;48.398;11.762;2022-09-09T06:02:57;12.40;99.90
12481;DHT22;6305;48.398;11.762;2022-09-09T06:05:24;12.50;99.90
12481;DHT22;6305;48.398;11.762;2022-09-09T06:07:52;12.60;99.90
12481;DHT22;6305;48.398;11.762;2022-09-09T06:10:21;12.70;99.90
12481;DHT22;6305;48.398;11.762;2022-09-09T06:12:47;12.70;99.90
12481;DHT22;6305;48.398;11.762;2022-09-09T06:15:14;12.70;99.90
12481;DHT22;6305;48.398;11.762;2022-09-09T06:17:41;12.70;99.90
12481;DHT22;6305;48.398;11.762;2022-09-09T06:20:09;12.80;99.90
12481;DHT22;6305;48.398;11.762;2022-09-09T06:22:35;13.00;99.90
12481;DHT22;6305;48.398;11.762;2022-09-09T06:25:03;13.20;99.90
12481;DHT22;6305;48.398;11.762;2022-09-09T06:27:31;13.40;99.90
12481;DHT22;6305;48.398;11.762;2022-09-09T06:29:57;13.60;99.90
12481;DHT22;6305;48.398;11.762;2022-09-09T06:32:24;13.80;99.90
12481;DHT22;6305;48.398;11.762;2022-09-09T06:34:52;13.90;99.90
12481;DHT22;6305;48.398;11.762;2022-09-09T06:37:19;14.00;99.90
12481;DHT22;6305;48.398;11.762;2022-09-09T06:39:46;14.10;99.90
12481;DHT22;6305;48.398;11.762;2022-09-09T06:42:13;14.10;99.90
12481;DHT22;6305;48.398;11.762;2022-09-09T06:44:42;14.20;99.90
12481;DHT22;6305;48.398;11.762;2022-09-09T06:47:09;14.20;99.90
12481;DHT22;6305;48.398;11.762;2022-09-09T06:49:36;14.30;99.90
12481;DHT22;6305;48.398;11.762;2022-09-09T06:52:03;14.30;99.90
12481;DHT22;6305;48.398;11.762;2022-09-09T06:54:30;14.30;99.90
12481;DHT22;6305;48.398;11.762;2022-09-09T06:56:56;14.30;99.90
12481;DHT22;6305;48.398;11.762;2022-09-09T06:59:23;14.30;99.90
12481;DHT22;6305;48.398;11.762;2022-09-09T07:01:52;14.20;99.90
12481;DHT22;6305;48.398;11.762;2022-09-09T07:04:20;14.20;99.90
12481;DHT22;6305;48.398;11.762;2022-09-09T07:06:46;14.30;99.90
12481;DHT22;6305;48.398;11.762;2022-09-09T07:09:14;14.30;99.90
12481;DHT22;6305;48.398;11.762;2022-09-09T07:11:43;14.30;99.90
12481;DHT22;6305;48.398;11.762;2022-09-09T07:14:10;14.20;99.90
12481;DHT22;6305;48.398;11.762;2022-09-09T07:16:39;14.10;99.90
12481;DHT22;6305;48.398;11.762;2022-09-09T07:19:07;14.10;99.90
12481;DHT22;6305;48.398;11.762;2022-09-09T07:21:34;14.10;99.90
12481;DHT22;6305;48.398;11.762;2022-09-09T07:24:02;14.20;99.90
12481;DHT22;6305;48.398;11.762;2022-09-09T07:26:31;14.40;99.90
12481;DHT22;6305;48.398;11.762;2022-09-09T07:28:58;14.40;99.90
12481;DHT22;6305;48.398;11.762;2022-09-09T07:31:26;14.40;99.90
12481;DHT22;6305;48.398;11.762;2022-09-09T07:33:53;14.60;99.90
12481;DHT22;6305;48.398;11.762;2022-09-09T07:36:23;14.70;99.90
12481;DHT22;6305;48.398;11.762;2022-09-09T07:38:53;14.70;99.90
12481;DHT22;6305;48.398;11.762;2022-09-09T07:41:21;14.50;99.90
12481;DHT22;6305;48.398;11.762;2022-09-09T07:43:50;14.50;99.90
12481;DHT22;6305;48.398;11.762;2022-09-09T07:46:18;14.60;99.90
12481;DHT22;6305;48.398;11.762;2022-09-09T07:48:46;14.60;99.90
12481;DHT22;6305;48.398;11.762;2022-09-09T07:51:17;14.70;99.90
12481;DHT22;6305;48.398;11.762;2022-09-09T07:53:47;14.70;99.90
12481;DHT22;6305;48.398;11.762;2022-09-09T07:56:15;14.70;99.90
12481;DHT22;6305;48.398;11.762;2022-09-09T07:58:45;14.70;99.90
12481;DHT22;6305;48.398;11.762;2022-09-09T08:01:14;14.70;99.90
12481;DHT22;6305;48.398;11.762;2022-09-09T08:03:43;14.60;99.90
12481;DHT22;6305;48.398;11.762;2022-09-09T08:06:10;14.70;99.90
12481;DHT22;6305;48.398;11.762;2022-09-09T08:08:38;14.80;99.90
12481;DHT22;6305;48.398;11.762;2022-09-09T08:11:10;15.00;99.90
12481;DHT22;6305;48.398;11.762;2022-09-09T08:13:38;15.20;99.90
12481;DHT22;6305;48.398;11.762;2022-09-09T08:16:07;15.60;99.90
12481;DHT22;6305;48.398;11.762;2022-09-09T08:18:34;15.90;99.90
12481;DHT22;6305;48.398;11.762;2022-09-09T08:21:08;16.20;99.90
12481;DHT22;6305;48.398;11.762;2022-09-09T08:23:37;16.30;99.90
12481;DHT22;6305;48.398;11.762;2022-09-09T08:26:09;16.50;99.90
12481;DHT22;6305;48.398;11.762;2022-09-09T08:28:36;16.60;99.90
12481;DHT22;6305;48.398;11.762;2022-09-09T08:31:07;16.80;99.90
12481;DHT22;6305;48.398;11.762;2022-09-09T08:33:34;16.80;99.90
12481;DHT22;6305;48.398;11.762;2022-09-09T08:36:02;16.80;99.90
12481;DHT22;6305;48.398;11.762;2022-09-09T08:38:30;16.80;99.90
12481;DHT22;6305;48.398;11.762;2022-09-09T08:41:12;16.60;99.90
12481;DHT22;6305;48.398;11.762;2022-09-09T08:43:43;16.60;99.90
12481;DHT22;6305;48.398;11.762;2022-09-09T08:46:17;16.40;99.90
12481;DHT22;6305;48.398;11.762;2022-09-09T08:48:52;16.40;99.90
12481;DHT22;6305;48.398;11.762;2022-09-09T08:51:24;16.30;99.90
12481;DHT22;6305;48.398;11.762;2022-09-09T08:53:52;16.30;99.90
12481;DHT22;6305;48.398;11.762;2022-09-09T08:56:22;16.20;99.90
12481;DHT22;6305;48.398;11.762;2022-09-09T08:58:51;16.20;99.90
12481;DHT22;6305;48.398;11.762;2022-09-09T09:01:37;16.20;99.90
12481;DHT22;6305;48.398;11.762;2022-09-09T09:04:16;16.30;99.90
12481;DHT22;6305;48.398;11.762;2022-09-09T09:06:53;16.30;99.90
12481;DHT22;6305;48.398;11.762;2022-09-09T09:09:24;16.50;99.90
12481;DHT22;6305;48.398;11.762;2022-09-09T09:11:59;16.60;99.90
12481;DHT22;6305;48.398;11.762;2022-09-09T09:14:29;16.90;99.90
12481;DHT22;6305;48.398;11.762;2022-09-09T09:17:01;17.00;99.90
12481;DHT22;6305;48.398;11.762;2022-09-09T09:19:29;17.40;99.90
12481;DHT22;6305;48.398;11.762;2022-09-09T09:22:01;17.80;99.90
12481;DHT22;6305;48.398;11.762;2022-09-09T09:24:39;18.00;99.90
12481;DHT22;6305;48.398;11.762;2022-09-09T09:27:12;17.90;99.90
12481;DHT22;6305;48.398;11.762;2022-09-09T09:29:40;17.70;99.90
12481;DHT22;6305;48.398;11.762;2022-09-09T09:32:10;17.70;99.90
12481;DHT22;6305;48.398;11.762;2022-09-09T09:34:39;17.90;99.90
12481;DHT22;6305;48.398;11.762;2022-09-09T09:37:14;18.10;99.90
12481;DHT22;6305;48.398;11.762;2022-09-09T09:39:45;18.10;99.90
12481;DHT22;6305;48.398;11.762;2022-09-09T09:42:16;17.80;99.90
12481;DHT22;6305;48.398;11.762;2022-09-09T09:44:43;17.70;99.90
12481;DHT22;6305;48.398;11.762;2022-09-09T09:47:12;17.70;99.90
12481;DHT22;6305;48.398;11.762;2022-09-09T09:49:50;17.60;99.90
12481;DHT22;6305;48.398;11.762;2022-09-09T09:52:21;17.60;99.90
12481;DHT22;6305;48.398;11.762;2022-09-09T09:54:50;17.80;99.90
12481;DHT22;6305;48.398;11.762;2022-09-09T09:57:23;17.80;99.90
12481;DHT22;6305;48.398;11.762;2022-09-09T10:00:01;17.70;99.90
12481;DHT22;6305;48.398;11.762;2022-09-09T10:02:37;17.60;99.90
12481;DHT22;6305;48.398;11.762;2022-09-09T10:05:12;17.70;99.90
12481;DHT22;6305;48.398;11.762;2022-09-09T10:07:39;17.90;99.90
12481;DHT22;6305;48.398;11.762;2022-09-09T10:10:10;17.90;99.90
12481;DHT22;6305;48.398;11.762;2022-09-09T10:12:45;18.10;99.90
12481;DHT22;6305;48.398;11.762;2022-09-09T10:15:30;18.40;99.90
12481;DHT22;6305;48.398;11.762;2022-09-09T10:18:04;18.70;99.90
12481;DHT22;6305;48.398;11.762;2022-09-09T10:20:40;19.00;99.90
12481;DHT22;6305;48.398;11.762;2022-09-09T10:23:23;18.90;99.90
12481;DHT22;6305;48.398;11.762;2022-09-09T10:26:07;19.00;99.90
12481;DHT22;6305;48.398;11.762;2022-09-09T10:31:33;19.30;99.90
12481;DHT22;6305;48.398;11.762;2022-09-09T10:34:13;19.10;99.90
12481;DHT22;6305;48.398;11.762;2022-09-09T10:36:47;19.10;99.90
12481;DHT22;6305;48.398;11.762;2022-09-09T10:39:22;19.20;99.90
12481;DHT22;6305;48.398;11.762;2022-09-09T10:42:00;19.50;99.90
12481;DHT22;6305;48.398;11.762;2022-09-09T10:44:49;19.70;99.90
12481;DHT22;6305;48.398;11.762;2022-09-09T10:47:45;20.00;99.90
12481;DHT22;6305;48.398;11.762;2022-09-09T10:50:47;20.40;99.90
12481;DHT22;6305;48.398;11.762;2022-09-09T10:53:24;20.50;99.90
12481;DHT22;6305;48.398;11.762;2022-09-09T10:55:57;20.60;99.90
12481;DHT22;6305;48.398;11.762;2022-09-09T10:58:30;20.80;99.90
12481;DHT22;6305;48.398;11.762;2022-09-09T11:01:06;21.10;99.90
12481;DHT22;6305;48.398;11.762;2022-09-09T11:03:38;21.10;99.90
12481;DHT22;6305;48.398;11.762;2022-09-09T11:06:12;20.90;99.90
12481;DHT22;6305;48.398;11.762;2022-09-09T11:08:40;21.00;99.90
12481;DHT22;6305;48.398;11.762;2022-09-09T11:11:11;21.20;99.90
12481;DHT22;6305;48.398;11.762;2022-09-09T11:13:45;21.10;99.90
12481;DHT22;6305;48.398;11.762;2022-09-09T11:16:22;21.10;99.90
12481;DHT22;6305;48.398;11.762;2022-09-09T11:18:55;21.20;99.90
12481;DHT22;6305;48.398;11.762;2022-09-09T11:21:27;21.30;99.90
12481;DHT22;6305;48.398;11.762;2022-09-09T11:23:59;21.40;99.90
12481;DHT22;6305;48.398;11.762;2022-09-09T11:26:31;21.60;99.90
12481;DHT22;6305;48.398;11.762;2022-09-09T11:29:14;21.80;99.90
12481;DHT22;6305;48.398;11.762;2022-09-09T11:31:58;22.10;99.90
12481;DHT22;6305;48.398;11.762;2022-09-09T11:34:42;22.90;99.90
12481;DHT22;6305;48.398;11.762;2022-09-09T11:37:29;23.20;99.90
12481;DHT22;6305;48.398;11.762;2022-09-09T11:40:19;23.50;99.90
12481;DHT22;6305;48.398;11.762;2022-09-09T11:42:47;24.30;99.90
12481;DHT22;6305;48.398;11.762;2022-09-09T11:45:23;24.90;99.90
12481;DHT22;6305;48.398;11.762;2022-09-09T11:47:56;25.70;99.10
12481;DHT22;6305;48.398;11.762;2022-09-09T11:50:31;26.70;96.60
12481;DHT22;6305;48.398;11.762;2022-09-09T11:53:20;27.00;91.10
12481;DHT22;6305;48.398;11.762;2022-09-09T11:55:59;26.80;92.30
12481;DHT22;6305;48.398;11.762;2022-09-09T11:58:27;26.90;91.10
12481;DHT22;6305;48.398;11.762;2022-09-09T12:00:58;26.50;87.90
12481;DHT22;6305;48.398;11.762;2022-09-09T12:03:40;25.80;90.00
12481;DHT22;6305;48.398;11.762;2022-09-09T12:06:11;25.20;90.80
12481;DHT22;6305;48.398;11.762;2022-09-09T12:08:41;24.70;92.30
12481;DHT22;6305;48.398;11.762;2022-09-09T12:11:10;24.60;93.90
12481;DHT22;6305;48.398;11.762;2022-09-09T12:13:38;24.20;94.40
12481;DHT22;6305;48.398;11.762;2022-09-09T12:16:05;23.80;95.00
12481;DHT22;6305;48.398;11.762;2022-09-09T12:18:33;23.40;96.70
12481;DHT22;6305;48.398;11.762;2022-09-09T12:21:06;23.00;97.90
12481;DHT22;6305;48.398;11.762;2022-09-09T12:23:41;22.80;98.80
12481;DHT22;6305;48.398;11.762;2022-09-09T12:26:23;22.50;99.60
12481;DHT22;6305;48.398;11.762;2022-09-09T12:28:58;22.30;99.60
12481;DHT22;6305;48.398;11.762;2022-09-09T12:31:34;22.20;99.90
12481;DHT22;6305;48.398;11.762;2022-09-09T12:34:09;22.30;99.80
12481;DHT22;6305;48.398;11.762;2022-09-09T12:36:38;22.80;98.80
12481;DHT22;6305;48.398;11.762;2022-09-09T12:39:14;23.70;96.60
12481;DHT22;6305;48.398;11.762;2022-09-09T12:41:50;24.60;93.50
12481;DHT22;6305;48.398;11.762;2022-09-09T12:44:18;24.70;90.70
12481;DHT22;6305;48.398;11.762;2022-09-09T12:46:46;24.50;90.20
12481;DHT22;6305;48.398;11.762;2022-09-09T12:49:27;23.90;91.10
12481;DHT22;6305;48.398;11.762;2022-09-09T12:51:56;23.40;91.70
12481;DHT22;6305;48.398;11.762;2022-09-09T12:54:24;22.90;92.50
12481;DHT22;6305;48.398;11.762;2022-09-09T12:56:51;22.40;93.90
12481;DHT22;6305;48.398;11.762;2022-09-09T12:59:23;22.20;95.10
12481;DHT22;6305;48.398;11.762;2022-09-09T13:01:56;22.70;95.00
12481;DHT22;6305;48.398;11.762;2022-09-09T13:04:23;23.70;93.00
12481;DHT22;6305;48.398;11.762;2022-09-09T13:06:49;25.10;90.90
12481;DHT22;6305;48.398;11.762;2022-09-09T13:09:19;26.50;83.20
12481;DHT22;6305;48.398;11.762;2022-09-09T13:11:49;28.00;74.70
12481;DHT22;6305;48.398;11.762;2022-09-09T13:14:19;28.30;66.80
12481;DHT22;6305;48.398;11.762;2022-09-09T13:16:56;27.90;65.30
12481;DHT22;6305;48.398;11.762;2022-09-09T13:19:23;27.20;66.70
12481;DHT22;6305;48.398;11.762;2022-09-09T13:21:53;26.50;70.10
12481;DHT22;6305;48.398;11.762;2022-09-09T13:24:28;25.90;73.10
12481;DHT22;6305;48.398;11.762;2022-09-09T13:26:56;25.10;78.00
12481;DHT22;6305;48.398;11.762;2022-09-09T13:29:23;24.60;80.40
12481;DHT22;6305;48.398;11.762;2022-09-09T13:31:51;24.10;83.60
12481;DHT22;6305;48.398;11.762;2022-09-09T13:34:28;23.90;86.60
12481;DHT22;6305;48.398;11.762;2022-09-09T13:36:59;23.40;89.20
12481;DHT22;6305;48.398;11.762;2022-09-09T13:39:28;23.20;90.50
12481;DHT22;6305;48.398;11.762;2022-09-09T13:41:55;23.10;91.60
12481;DHT22;6305;48.398;11.762;2022-09-09T13:44:25;23.00;91.60
12481;DHT22;6305;48.398;11.762;2022-09-09T13:47:03;23.00;91.90
12481;DHT22;6305;48.398;11.762;2022-09-09T13:49:31;22.80;92.40
12481;DHT22;6305;48.398;11.762;2022-09-09T13:52:09;22.60;92.90
12481;DHT22;6305;48.398;11.762;2022-09-09T13:54:38;22.50;93.60
12481;DHT22;6305;48.398;11.762;2022-09-09T13:57:05;22.60;94.50
12481;DHT22;6305;48.398;11.762;2022-09-09T13:59:31;22.90;93.90
12481;DHT22;6305;48.398;11.762;2022-09-09T14:01:58;23.10;92.40
12481;DHT22;6305;48.398;11.762;2022-09-09T14:04:27;23.60;91.70
12481;DHT22;6305;48.398;11.762;2022-09-09T14:06:54;23.70;90.60
12481;DHT22;6305;48.398;11.762;2022-09-09T14:09:22;24.00;90.50
12481;DHT22;6305;48.398;11.762;2022-09-09T14:11:50;24.60;90.40
12481;DHT22;6305;48.398;11.762;2022-09-09T14:14:17;25.00;85.40
12481;DHT22;6305;48.398;11.762;2022-09-09T14:16:43;24.70;83.20
12481;DHT22;6305;48.398;11.762;2022-09-09T14:19:10;24.30;84.90
12481;DHT22;6305;48.398;11.762;2022-09-09T14:21:37;23.80;87.80
12481;DHT22;6305;48.398;11.762;2022-09-09T14:24:04;23.30;90.00
12481;DHT22;6305;48.398;11.762;2022-09-09T14:26:31;22.90;91.10
12481;DHT22;6305;48.398;11.762;2022-09-09T14:28:59;22.60;92.60
12481;DHT22;6305;48.398;11.762;2022-09-09T14:31:26;22.30;93.90
12481;DHT22;6305;48.398;11.762;2022-09-09T14:33:53;22.10;95.40
12481;DHT22;6305;48.398;11.762;2022-09-09T14:36:20;21.80;96.40
12481;DHT22;6305;48.398;11.762;2022-09-09T14:38:48;21.60;97.70
12481;DHT22;6305;48.398;11.762;2022-09-09T14:41:16;21.40;97.80
12481;DHT22;6305;48.398;11.762;2022-09-09T14:43:44;21.10;98.80
12481;DHT22;6305;48.398;11.762;2022-09-09T14:46:14;20.80;98.90
12481;DHT22;6305;48.398;11.762;2022-09-09T14:48:41;20.70;99.90
12481;DHT22;6305;48.398;11.762;2022-09-09T14:51:10;20.60;99.70
12481;DHT22;6305;48.398;11.762;2022-09-09T14:53:38;20.40;99.50
12481;DHT22;6305;48.398;11.762;2022-09-09T14:56:06;20.20;99.70
12481;DHT22;6305;48.398;11.762;2022-09-09T14:58:34;20.00;99.90
12481;DHT22;6305;48.398;11.762;2022-09-09T15:01:04;19.90;99.90
12481;DHT22;6305;48.398;11.762;2022-09-09T15:03:33;19.80;99.90
12481;DHT22;6305;48.398;11.762;2022-09-09T15:06:05;19.70;99.90
12481;DHT22;6305;48.398;11.762;2022-09-09T15:08:34;19.50;99.90
12481;DHT22;6305;48.398;11.762;2022-09-09T15:11:01;19.50;99.90
12481;DHT22;6305;48.398;11.762;2022-09-09T15:13:28;19.50;99.90
12481;DHT22;6305;48.398;11.762;2022-09-09T15:15:54;19.40;99.90
12481;DHT22;6305;48.398;11.762;2022-09-09T15:18:23;19.40;99.90
12481;DHT22;6305;48.398;11.762;2022-09-09T15:20:52;19.40;99.90
12481;DHT22;6305;48.398;11.762;2022-09-09T15:23:19;19.30;99.90
12481;DHT22;6305;48.398;11.762;2022-09-09T15:25:52;19.40;99.90
12481;DHT22;6305;48.398;11.762;2022-09-09T15:28:18;19.30;99.90
12481;DHT22;6305;48.398;11.762;2022-09-09T15:30:47;19.40;99.90
12481;DHT22;6305;48.398;11.762;2022-09-09T15:33:14;19.40;99.90
12481;DHT22;6305;48.398;11.762;2022-09-09T15:35:41;19.40;99.90
12481;DHT22;6305;48.398;11.762;2022-09-09T15:38:09;19.40;99.90
12481;DHT22;6305;48.398;11.762;2022-09-09T15:40:38;19.30;99.90
12481;DHT22;6305;48.398;11.762;2022-09-09T15:43:05;19.30;99.90
12481;DHT22;6305;48.398;11.762;2022-09-09T15:45:32;19.40;99.90
12481;DHT22;6305;48.398;11.762;2022-09-09T15:47:59;19.50;99.90
12481;DHT22;6305;48.398;11.762;2022-09-09T15:50:26;19.90;99.90
12481;DHT22;6305;48.398;11.762;2022-09-09T15:52:56;20.20;99.90
12481;DHT22;6305;48.398;11.762;2022-09-09T15:55:25;20.30;99.90